Crisp, Illinois
Current Conditions -  °F | °C
As of 6:35 AM on Thursday 23 Oct 2014 (Local Time) from KFWC Reporting Station
Haze Haze  
Wind Chill: 37°   Ceiling: Unl
Heat Index: 37°   Visibility: 4mi
Dew Point: 36°   Wind: 0mph
Humidity: 99%   Direction: NA
Pressure: 30.22"   Gusts: NA
Location:  38.3069°N, 88.55°W
Report Text: KFWC 231135Z AUTO 00000KT 4SM BR CLR 03/02 A3022 RMK AO1 T00250024
Loading
Personal Weather Stations






























Interactive Weather Map
Tropical Storm Tracking
New forecast layout! Learn more

10-Day Weather Forecast

Advertisements
Track Severe Weather on mobile